createdAt,value
2023-04-18T00:02:17.553Z,6.50
2023-04-18T00:04:46.405Z,6.30
2023-04-18T00:07:17.274Z,6.73
2023-04-18T00:09:46.608Z,6.67
2023-04-18T00:12:13.822Z,6.90
2023-04-18T00:14:41.057Z,7.60
2023-04-18T00:17:08.671Z,7.00
2023-04-18T00:19:41.207Z,7.80
2023-04-18T00:22:11.118Z,6.60
2023-04-18T00:24:40.539Z,7.37
2023-04-18T00:27:09.884Z,7.63
2023-04-18T00:29:40.427Z,6.50
2023-04-18T00:32:07.303Z,6.97
2023-04-18T00:34:34.458Z,6.47
2023-04-18T00:37:01.588Z,7.13
2023-04-18T00:39:30.992Z,7.47
2023-04-18T00:41:57.938Z,7.33
2023-04-18T00:44:26.980Z,6.67
2023-04-18T00:46:56.295Z,6.90
2023-04-18T00:49:26.332Z,7.23
2023-04-18T00:51:56.382Z,8.27
2023-04-18T00:54:25.709Z,7.63
2023-04-18T00:56:52.778Z,7.03
2023-04-18T00:59:21.742Z,7.63
2023-04-18T01:01:48.697Z,6.60
2023-04-18T01:04:17.117Z,7.20
2023-04-18T01:06:46.997Z,8.10
2023-04-18T01:09:14.155Z,7.33
2023-04-18T01:11:47.129Z,7.53
2023-04-18T01:14:20.803Z,7.23
2023-04-18T01:16:49.903Z,6.90
2023-04-18T01:19:19.031Z,6.97
2023-04-18T01:21:46.182Z,7.10
2023-04-18T01:24:17.916Z,7.63
2023-04-18T01:26:49.794Z,6.90
2023-04-18T01:29:16.826Z,7.47
2023-04-18T01:31:46.396Z,7.00
2023-04-18T01:34:18.011Z,7.53
2023-04-18T01:36:47.794Z,7.27
2023-04-18T01:39:15.459Z,7.47
2023-04-18T01:41:42.630Z,7.60
2023-04-18T01:44:11.880Z,7.40
2023-04-18T01:46:42.054Z,7.50
2023-04-18T01:49:13.704Z,6.93
2023-04-18T01:51:43.034Z,7.50
2023-04-18T01:54:17.101Z,7.50
2023-04-18T01:56:44.001Z,7.57
2023-04-18T01:59:15.379Z,7.50
2023-04-18T02:01:45.058Z,7.53
2023-04-18T02:04:12.077Z,8.00
2023-04-18T02:06:41.286Z,6.47
2023-04-18T02:09:11.034Z,7.97
2023-04-18T02:11:40.401Z,8.70
2023-04-18T02:14:07.363Z,7.30
2023-04-18T02:16:35.143Z,7.77
2023-04-18T02:19:04.727Z,7.67
2023-04-18T02:21:31.790Z,7.70
2023-04-18T02:23:58.619Z,8.80
2023-04-18T02:26:25.702Z,7.90
2023-04-18T02:28:58.529Z,8.50
2023-04-18T02:31:31.961Z,7.40
2023-04-18T02:34:01.472Z,7.40
2023-04-18T02:36:28.366Z,7.93
2023-04-18T02:38:55.688Z,8.17
2023-04-18T02:41:25.053Z,8.60
2023-04-18T02:43:56.397Z,7.47
2023-04-18T02:46:25.799Z,7.77
2023-04-18T02:48:57.691Z,7.60
2023-04-18T02:51:26.335Z,7.97
2023-04-18T02:53:56.215Z,7.87
2023-04-18T02:56:24.430Z,8.83
2023-04-18T02:59:14.637Z,7.90
2023-04-18T03:01:58.626Z,7.60
2023-04-18T03:04:25.665Z,7.60
2023-04-18T03:07:02.967Z,7.83
2023-04-18T03:09:36.192Z,7.23
2023-04-18T03:12:11.300Z,8.07
2023-04-18T03:14:39.076Z,8.60
2023-04-18T03:17:05.972Z,7.83
2023-04-18T03:19:38.676Z,8.00
2023-04-18T03:22:13.324Z,8.20
2023-04-18T03:24:47.728Z,7.57
2023-04-18T03:27:15.840Z,8.27
2023-04-18T03:29:47.407Z,8.57
2023-04-18T03:32:14.829Z,9.20
2023-04-18T03:34:41.828Z,8.63
2023-04-18T03:37:09.315Z,8.13
2023-04-18T03:39:49.026Z,9.00
2023-04-18T03:42:18.426Z,8.37
2023-04-18T03:44:48.828Z,8.90
2023-04-18T03:47:18.069Z,8.87
2023-04-18T03:49:50.596Z,7.97
2023-04-18T03:52:17.722Z,10.10
2023-04-18T03:54:49.462Z,8.50
2023-04-18T03:57:21.667Z,8.77
2023-04-18T03:59:53.102Z,8.80
2023-04-18T04:02:26.486Z,9.07
2023-04-18T04:04:55.770Z,10.87
2023-04-18T04:07:25.466Z,9.97
2023-04-18T04:09:55.151Z,9.53
2023-04-18T04:12:27.978Z,9.77
2023-04-18T04:14:54.969Z,10.10
2023-04-18T04:17:24.612Z,9.20
2023-04-18T04:19:52.846Z,8.97
2023-04-18T04:22:20.980Z,8.67
2023-04-18T04:24:52.994Z,10.10
2023-04-18T04:27:29.507Z,9.30
2023-04-18T04:29:56.957Z,9.90
2023-04-18T04:32:28.352Z,9.10
2023-04-18T04:34:57.434Z,8.63
2023-04-18T04:37:28.261Z,10.07
2023-04-18T04:40:15.643Z,10.17
2023-04-18T04:42:42.610Z,10.63
2023-04-18T04:45:23.208Z,9.77
2023-04-18T04:47:52.410Z,9.47
2023-04-18T04:50:21.014Z,9.33
2023-04-18T04:52:52.717Z,9.20
2023-04-18T04:55:22.274Z,9.60
2023-04-18T04:57:50.334Z,8.50
2023-04-18T05:00:42.365Z,8.63
2023-04-18T05:03:12.097Z,8.33
2023-04-18T05:05:41.432Z,10.00
2023-04-18T05:08:08.432Z,9.27
2023-04-18T05:10:37.141Z,8.90
2023-04-18T05:13:11.483Z,9.37
2023-04-18T05:15:39.904Z,9.13
2023-04-18T05:18:09.129Z,8.03
2023-04-18T05:20:36.520Z,8.90
2023-04-18T05:23:03.408Z,8.50
2023-04-18T05:25:31.721Z,8.80
2023-04-18T05:28:08.275Z,9.17
2023-04-18T05:30:37.391Z,8.90
2023-04-18T05:33:06.325Z,8.83
2023-04-18T05:35:33.568Z,7.73
2023-04-18T05:38:02.500Z,8.40
2023-04-18T05:40:29.908Z,8.20
2023-04-18T05:43:01.257Z,8.57
2023-04-18T05:45:28.112Z,9.20
2023-04-18T05:47:55.002Z,8.23
2023-04-18T05:50:24.652Z,8.33
2023-04-18T05:52:53.695Z,9.17
2023-04-18T05:55:20.665Z,8.40
2023-04-18T05:57:47.484Z,9.10
2023-04-18T06:00:15.112Z,8.73
2023-04-18T06:02:44.524Z,8.00
2023-04-18T06:05:16.698Z,8.33
2023-04-18T06:07:45.936Z,8.10
2023-04-18T06:10:13.439Z,8.10
2023-04-18T06:12:45.197Z,7.77
2023-04-18T06:15:14.204Z,7.83
2023-04-18T06:17:44.575Z,7.40
2023-04-18T06:20:13.870Z,7.43
2023-04-18T06:22:40.809Z,8.07
2023-04-18T06:25:15.971Z,8.27
2023-04-18T06:27:42.876Z,8.00
2023-04-18T06:30:10.576Z,8.60
2023-04-18T06:32:40.864Z,7.03
2023-04-18T06:35:10.871Z,7.50
2023-04-18T06:37:44.032Z,7.07
2023-04-18T06:40:12.318Z,7.73
2023-04-18T06:42:43.542Z,7.47
2023-04-18T06:45:15.223Z,6.53
2023-04-18T06:47:44.648Z,6.83
2023-04-18T06:50:17.342Z,7.50
2023-04-18T06:52:46.489Z,8.40
2023-04-18T06:55:15.993Z,6.73
2023-04-18T06:57:43.519Z,7.23
2023-04-18T07:00:13.631Z,6.60
2023-04-18T07:02:43.434Z,6.70
2023-04-18T07:05:12.610Z,6.53
2023-04-18T07:07:41.458Z,5.70
2023-04-18T07:10:11.789Z,6.43
2023-04-18T07:12:38.762Z,6.33
2023-04-18T07:15:08.968Z,5.87
2023-04-18T07:17:38.277Z,5.67
2023-04-18T07:20:08.632Z,6.10
2023-04-18T07:22:42.011Z,5.77
2023-04-18T07:25:13.603Z,5.80
2023-04-18T07:27:42.614Z,5.77
2023-04-18T07:30:10.117Z,5.60
2023-04-18T07:32:39.342Z,4.97
2023-04-18T07:35:06.692Z,5.40
2023-04-18T07:37:33.826Z,4.73
2023-04-18T07:40:04.205Z,4.90
2023-04-18T07:42:33.300Z,4.80
2023-04-18T07:45:02.336Z,4.27
2023-04-18T07:47:30.471Z,4.90
2023-04-18T07:50:02.897Z,5.17
2023-04-18T07:52:32.093Z,5.30
2023-04-18T07:55:01.298Z,5.50
2023-04-18T07:57:30.523Z,5.17
2023-04-18T07:59:57.382Z,5.27
2023-04-18T08:02:24.352Z,4.57
2023-04-18T08:04:53.329Z,4.77
2023-04-18T08:07:20.650Z,4.80
2023-04-18T08:09:50.030Z,5.10
2023-04-18T08:12:19.038Z,4.70
2023-04-18T08:14:47.987Z,4.57
2023-04-18T08:17:14.889Z,4.47
2023-04-18T08:19:41.779Z,4.90
2023-04-18T08:22:10.825Z,5.00
2023-04-18T08:25:00.963Z,4.80
2023-04-18T08:27:33.087Z,4.23
2023-04-18T08:30:00.591Z,5.10
2023-04-18T08:32:32.023Z,4.77
2023-04-18T08:34:59.103Z,5.00
2023-04-18T08:37:27.734Z,4.87
2023-04-18T08:39:54.579Z,4.40
2023-04-18T08:42:25.125Z,4.70
2023-04-18T08:44:57.752Z,5.03
2023-04-18T08:47:31.052Z,4.03
2023-04-18T08:50:01.656Z,4.67
2023-04-18T08:52:32.427Z,4.87
2023-04-18T08:54:59.277Z,4.47
2023-04-18T08:57:28.247Z,4.47
2023-04-18T08:59:57.699Z,4.83
2023-04-18T09:02:42.306Z,4.80
2023-04-18T09:05:19.401Z,4.20
2023-04-18T09:07:48.882Z,4.23
2023-04-18T09:10:30.719Z,4.67
2023-04-18T09:13:05.759Z,4.37
2023-04-18T09:15:32.656Z,4.47
2023-04-18T09:18:10.249Z,4.10
2023-04-18T09:20:42.188Z,4.17
2023-04-18T09:23:26.165Z,4.30
2023-04-18T09:25:55.573Z,4.07
2023-04-18T09:28:29.855Z,4.23
2023-04-18T09:31:16.411Z,4.40
2023-04-18T09:33:56.768Z,4.30
2023-04-18T09:36:27.688Z,4.57
2023-04-18T09:38:57.064Z,4.67
2023-04-18T09:41:24.597Z,4.20
2023-04-18T09:44:17.159Z,3.90
2023-04-18T09:46:51.568Z,3.93
2023-04-18T09:49:18.802Z,4.50
2023-04-18T09:51:48.741Z,4.30
2023-04-18T09:54:19.647Z,3.93
2023-04-18T09:56:51.697Z,4.33
2023-04-18T09:59:39.985Z,4.07
2023-04-18T10:02:16.306Z,4.13
2023-04-18T10:04:49.184Z,3.70
2023-04-18T10:07:20.987Z,3.80
2023-04-18T10:09:49.163Z,4.30
2023-04-18T10:12:21.310Z,4.17
2023-04-18T10:14:48.787Z,3.33
2023-04-18T10:17:22.201Z,4.10
2023-04-18T10:20:08.086Z,3.87
2023-04-18T10:22:35.747Z,3.50
2023-04-18T10:25:08.673Z,4.10
2023-04-18T10:27:47.791Z,3.63
2023-04-18T10:30:16.545Z,3.77
2023-04-18T10:32:46.337Z,3.80
2023-04-18T10:35:13.789Z,4.20
2023-04-18T10:37:51.540Z,3.77
2023-04-18T10:40:35.165Z,3.60
2023-04-18T10:43:04.505Z,3.37
2023-04-18T10:45:39.142Z,4.00
2023-04-18T10:48:29.386Z,3.70
2023-04-18T10:51:26.484Z,4.23
2023-04-18T10:54:02.529Z,3.23
2023-04-18T10:56:29.767Z,4.00
2023-04-18T10:59:05.009Z,3.50
2023-04-18T11:01:37.111Z,3.23
2023-04-18T11:04:13.808Z,4.00
2023-04-18T11:06:57.564Z,3.20
2023-04-18T11:09:29.780Z,3.63
2023-04-18T11:12:10.539Z,3.10
2023-04-18T11:14:43.307Z,3.50
2023-04-18T11:17:40.306Z,2.97
2023-04-18T11:20:21.577Z,2.93
2023-04-18T11:23:00.714Z,2.67
2023-04-18T11:25:31.941Z,3.13
2023-04-18T11:28:01.215Z,2.63
2023-04-18T11:30:38.548Z,3.17
2023-04-18T11:33:16.670Z,4.43
2023-04-18T11:35:46.827Z,3.03
2023-04-18T11:38:18.522Z,3.03
2023-04-18T11:40:50.472Z,3.03
2023-04-18T11:43:25.559Z,2.70
2023-04-18T11:45:58.038Z,2.43
2023-04-18T11:48:34.948Z,2.43
2023-04-18T11:51:07.884Z,3.53
2023-04-18T11:53:37.421Z,3.40
2023-04-18T11:56:07.799Z,2.93
2023-04-18T11:58:36.490Z,2.67
2023-04-18T12:01:26.925Z,2.90
2023-04-18T12:04:20.223Z,2.90
2023-04-18T12:06:53.776Z,2.83
2023-04-18T12:09:27.518Z,2.40
2023-04-18T12:12:04.215Z,2.53
2023-04-18T12:14:35.784Z,2.83
2023-04-18T12:17:03.924Z,2.60
2023-04-18T12:19:34.198Z,2.80
2023-04-18T12:22:06.470Z,2.70
2023-04-18T12:24:33.661Z,2.50
2023-04-18T12:27:03.413Z,2.93
2023-04-18T12:29:30.425Z,2.53
2023-04-18T12:32:06.974Z,2.60
2023-04-18T12:34:36.217Z,2.20
2023-04-18T12:37:04.898Z,2.20
2023-04-18T12:39:31.907Z,2.77
2023-04-18T12:41:58.694Z,2.57
2023-04-18T12:44:28.091Z,2.87
2023-04-18T12:46:59.765Z,2.53
2023-04-18T12:49:26.630Z,2.37
2023-04-18T12:51:53.461Z,2.60
2023-04-18T12:54:27.330Z,2.93
2023-04-18T12:56:58.716Z,2.50
2023-04-18T12:59:29.422Z,3.00
2023-04-18T13:01:58.514Z,2.70
2023-04-18T13:04:30.337Z,2.53
2023-04-18T13:06:57.344Z,3.13
2023-04-18T13:09:29.293Z,3.10
2023-04-18T13:11:56.754Z,2.17
2023-04-18T13:14:26.463Z,3.77
2023-04-18T13:16:53.373Z,4.60
2023-04-18T13:19:22.815Z,2.93
2023-04-18T13:21:49.739Z,2.93
2023-04-18T13:24:19.052Z,2.70
2023-04-18T13:26:48.379Z,2.47
2023-04-18T13:29:17.759Z,2.47
2023-04-18T13:31:51.703Z,2.43
2023-04-18T13:34:21.033Z,2.47
2023-04-18T13:36:47.830Z,2.37
2023-04-18T13:39:15.618Z,2.70
2023-04-18T13:41:44.948Z,2.63
2023-04-18T13:44:13.784Z,2.90
2023-04-18T13:46:40.922Z,2.30
2023-04-18T13:49:12.112Z,2.80
2023-04-18T13:51:41.690Z,2.43
2023-04-18T13:54:14.654Z,2.60
2023-04-18T13:56:42.667Z,2.70
2023-04-18T13:59:09.499Z,2.77
2023-04-18T14:01:41.332Z,2.93
2023-04-18T14:04:10.954Z,3.13
2023-04-18T14:06:38.245Z,3.13
2023-04-18T14:09:07.858Z,3.30
2023-04-18T14:11:35.444Z,4.00
2023-04-18T14:14:02.766Z,4.67
2023-04-18T14:16:34.461Z,4.43
2023-04-18T14:19:02.313Z,4.03
2023-04-18T14:21:34.372Z,3.97
2023-04-18T14:24:05.634Z,4.40
2023-04-18T14:26:37.312Z,5.03
2023-04-18T14:29:06.461Z,4.37
2023-04-18T14:31:35.803Z,4.00
2023-04-18T14:34:08.795Z,3.97
2023-04-18T14:36:37.967Z,4.93
2023-04-18T14:39:06.996Z,4.63
2023-04-18T14:41:36.262Z,4.73
2023-04-18T14:44:09.747Z,4.83
2023-04-18T14:46:36.796Z,4.57
2023-04-18T14:49:03.608Z,4.73
2023-04-18T14:51:33.016Z,4.83
2023-04-18T14:54:02.317Z,5.00
2023-04-18T14:56:29.091Z,4.53
2023-04-18T14:58:58.687Z,5.20
2023-04-18T15:01:26.261Z,4.17
2023-04-18T15:03:53.367Z,4.37
2023-04-18T15:06:20.393Z,3.90
2023-04-18T15:08:49.264Z,4.40
2023-04-18T15:11:20.952Z,4.67
2023-04-18T15:13:50.622Z,5.03
2023-04-18T15:16:19.611Z,4.77
2023-04-18T15:18:51.255Z,4.97
2023-04-18T15:21:18.133Z,5.77
2023-04-18T15:23:49.564Z,4.93
2023-04-18T15:26:18.960Z,4.43
2023-04-18T15:28:46.417Z,4.67
2023-04-18T15:31:16.411Z,4.20
2023-04-18T15:33:43.365Z,4.93
2023-04-18T15:36:14.956Z,4.97
2023-04-18T15:38:44.047Z,4.63
2023-04-18T15:41:13.231Z,4.83
2023-04-18T15:43:45.229Z,4.87
2023-04-18T15:46:14.653Z,5.07
2023-04-18T15:48:41.625Z,4.30
2023-04-18T15:51:08.672Z,4.87
2023-04-18T15:53:37.684Z,4.70
2023-04-18T15:56:10.131Z,4.90
2023-04-18T15:58:39.582Z,4.63
2023-04-18T16:01:06.909Z,4.70
2023-04-18T16:03:34.155Z,4.57
2023-04-18T16:06:01.139Z,4.17
2023-04-18T16:08:27.977Z,4.40
2023-04-18T16:10:55.047Z,4.53
2023-04-18T16:13:21.903Z,4.20
2023-04-18T16:15:48.834Z,4.67
2023-04-18T16:18:15.804Z,4.40
2023-04-18T16:20:47.327Z,4.60
2023-04-18T16:23:16.630Z,3.77
2023-04-18T16:25:43.437Z,5.10
2023-04-18T16:28:10.399Z,3.97
2023-04-18T16:30:42.193Z,4.27
2023-04-18T16:33:16.320Z,3.83
2023-04-18T16:35:45.565Z,5.33
2023-04-18T16:38:15.628Z,4.10
2023-04-18T16:40:45.227Z,3.90
2023-04-18T16:43:14.509Z,4.47
2023-04-18T16:45:41.364Z,4.10
2023-04-18T16:48:15.053Z,3.77
2023-04-18T16:50:46.889Z,4.23
2023-04-18T16:53:13.688Z,3.60
2023-04-18T16:55:43.469Z,3.83
2023-04-18T16:58:12.840Z,4.20
2023-04-18T17:00:44.606Z,3.30
2023-04-18T17:03:11.684Z,3.80
2023-04-18T17:05:39.327Z,3.90
2023-04-18T17:08:11.380Z,4.43
2023-04-18T17:10:38.304Z,4.03
2023-04-18T17:13:09.836Z,3.60
2023-04-18T17:15:36.945Z,4.10
2023-04-18T17:18:03.917Z,3.60
2023-04-18T17:20:33.271Z,4.37
2023-04-18T17:23:00.163Z,3.97
2023-04-18T17:25:29.530Z,4.30
2023-04-18T17:28:02.276Z,3.37
2023-04-18T17:30:31.709Z,3.70
2023-04-18T17:32:58.651Z,4.80
2023-04-18T17:35:27.820Z,4.40
2023-04-18T17:37:56.750Z,4.30
2023-04-18T17:40:26.179Z,4.47
2023-04-18T17:42:55.129Z,4.53
2023-04-18T17:45:22.086Z,4.20
2023-04-18T17:47:54.654Z,4.27
2023-04-18T17:50:21.613Z,4.33
2023-04-18T17:52:53.204Z,4.30
2023-04-18T17:55:20.604Z,4.47
2023-04-18T17:57:50.098Z,4.57
2023-04-18T18:00:17.992Z,4.70
2023-04-18T18:02:47.768Z,3.93
2023-04-18T18:05:19.576Z,4.93
2023-04-18T18:07:47.517Z,4.93
2023-04-18T18:10:23.636Z,4.53
2023-04-18T18:12:54.975Z,4.83
2023-04-18T18:15:21.967Z,4.80
2023-04-18T18:17:55.097Z,4.80
2023-04-18T18:20:29.290Z,4.67
2023-04-18T18:22:57.571Z,4.73
2023-04-18T18:25:24.434Z,5.33
2023-04-18T18:27:51.469Z,4.93
2023-04-18T18:30:22.972Z,5.17
2023-04-18T18:32:49.862Z,4.33
2023-04-18T18:35:21.312Z,4.93
2023-04-18T18:37:48.319Z,4.80
2023-04-18T18:40:19.818Z,4.90
2023-04-18T18:42:49.278Z,5.40
2023-04-18T18:45:19.752Z,4.37
2023-04-18T18:47:53.929Z,5.13
2023-04-18T18:50:25.466Z,5.07
2023-04-18T18:52:54.708Z,4.83
2023-04-18T18:55:26.219Z,4.80
2023-04-18T18:57:55.429Z,5.07
2023-04-18T19:00:24.787Z,4.13
2023-04-18T19:02:56.526Z,4.33
2023-04-18T19:05:26.108Z,5.07
2023-04-18T19:07:55.085Z,4.47
2023-04-18T19:10:24.302Z,4.80
2023-04-18T19:12:51.223Z,4.27
2023-04-18T19:15:20.032Z,4.60
2023-04-18T19:17:49.221Z,6.00
2023-04-18T19:20:16.201Z,5.03
2023-04-18T19:22:42.965Z,4.63
2023-04-18T19:25:12.718Z,4.77
2023-04-18T19:27:42.021Z,5.37
2023-04-18T19:30:10.480Z,5.43
2023-04-18T19:32:37.630Z,5.47
2023-04-18T19:35:07.548Z,5.77
2023-04-18T19:37:39.285Z,4.83
2023-04-18T19:40:12.353Z,5.17
2023-04-18T19:42:39.244Z,5.50
2023-04-18T19:45:11.997Z,5.23
2023-04-18T19:47:43.855Z,5.27
2023-04-18T19:50:13.716Z,5.93
2023-04-18T19:52:44.988Z,4.87
2023-04-18T19:55:12.127Z,4.67
2023-04-18T19:57:43.805Z,4.80
2023-04-18T20:00:14.052Z,5.13
2023-04-18T20:02:45.960Z,5.10
2023-04-18T20:05:15.779Z,4.67
2023-04-18T20:07:45.885Z,4.53
2023-04-18T20:10:12.779Z,4.97
2023-04-18T20:12:41.665Z,4.93
2023-04-18T20:15:14.382Z,5.17
2023-04-18T20:17:43.865Z,5.60
2023-04-18T20:20:13.102Z,4.73
2023-04-18T20:22:41.795Z,5.17
2023-04-18T20:25:11.246Z,4.90
2023-04-18T20:27:40.401Z,4.70
2023-04-18T20:30:10.072Z,5.10
2023-04-18T20:32:39.287Z,4.67
2023-04-18T20:35:07.222Z,4.80
2023-04-18T20:37:36.775Z,5.23
2023-04-18T20:40:11.250Z,5.43
2023-04-18T20:42:38.884Z,4.60
2023-04-18T20:45:10.735Z,3.73
2023-04-18T20:47:46.460Z,4.83
2023-04-18T20:50:18.048Z,4.50
2023-04-18T20:52:44.937Z,4.20
2023-04-18T20:55:16.714Z,4.97
2023-04-18T20:57:48.181Z,4.77
2023-04-18T21:00:19.759Z,4.77
2023-04-18T21:02:46.839Z,4.20
2023-04-18T21:05:16.314Z,4.60
2023-04-18T21:07:45.868Z,4.30
2023-04-18T21:10:12.873Z,3.90
2023-04-18T21:12:42.144Z,4.03
2023-04-18T21:15:15.068Z,3.90
2023-04-18T21:17:44.486Z,4.40
2023-04-18T21:20:11.480Z,3.67
2023-04-18T21:22:38.278Z,4.33
2023-04-18T21:25:07.941Z,4.00
2023-04-18T21:27:37.134Z,3.60
2023-04-18T21:30:06.729Z,4.10
2023-04-18T21:32:36.205Z,3.63
2023-04-18T21:35:06.402Z,3.70
2023-04-18T21:37:35.380Z,3.47
2023-04-18T21:40:05.168Z,3.73
2023-04-18T21:42:32.141Z,3.53
2023-04-18T21:45:01.508Z,4.53
2023-04-18T21:47:32.412Z,7.33
2023-04-18T21:50:05.508Z,4.43
2023-04-18T21:52:32.367Z,4.10
2023-04-18T21:54:59.271Z,3.97
2023-04-18T21:57:28.458Z,3.63
2023-04-18T22:00:00.437Z,3.83
2023-04-18T22:02:34.340Z,3.63
2023-04-18T22:05:01.433Z,3.73
2023-04-18T22:07:32.232Z,3.20
2023-04-18T22:10:02.325Z,4.23
2023-04-18T22:12:36.572Z,3.80
2023-04-18T22:15:07.301Z,4.07
2023-04-18T22:17:37.822Z,3.90
2023-04-18T22:20:11.142Z,3.57
2023-04-18T22:22:38.096Z,3.70
2023-04-18T22:25:11.224Z,3.40
2023-04-18T22:27:38.892Z,3.73
2023-04-18T22:30:06.866Z,3.43
2023-04-18T22:32:33.759Z,3.60
2023-04-18T22:35:03.982Z,3.47
2023-04-18T22:37:38.310Z,3.40
2023-04-18T22:40:12.617Z,3.23
2023-04-18T22:42:44.103Z,4.07
2023-04-18T22:45:13.524Z,3.00
2023-04-18T22:47:40.738Z,3.20
2023-04-18T22:50:12.741Z,3.67
2023-04-18T22:52:42.129Z,3.27
2023-04-18T22:55:13.896Z,3.23
2023-04-18T22:57:40.755Z,3.50
2023-04-18T23:00:11.164Z,3.00
2023-04-18T23:02:38.312Z,3.20
2023-04-18T23:05:07.320Z,3.00
2023-04-18T23:07:34.233Z,3.13
2023-04-18T23:10:07.813Z,2.93
2023-04-18T23:12:34.790Z,3.10
2023-04-18T23:15:03.918Z,3.20
2023-04-18T23:17:34.706Z,2.97
2023-04-18T23:20:04.523Z,3.10
2023-04-18T23:22:31.487Z,3.10
2023-04-18T23:25:00.878Z,3.20
2023-04-18T23:27:30.121Z,3.23
2023-04-18T23:29:59.162Z,3.33
2023-04-18T23:32:28.322Z,3.10
2023-04-18T23:34:55.200Z,3.53
2023-04-18T23:37:24.104Z,2.97
2023-04-18T23:39:53.407Z,3.13
2023-04-18T23:42:22.509Z,3.33
2023-04-18T23:44:49.673Z,3.27
2023-04-18T23:47:16.614Z,3.20
2023-04-18T23:49:43.624Z,3.27
2023-04-18T23:52:12.685Z,3.17
2023-04-18T23:54:41.782Z,4.00
2023-04-18T23:57:11.016Z,3.40
2023-04-18T23:59:38.146Z,3.20
